createdAt,value
2018-12-04T00:01:13.670Z,90.30
2018-12-04T00:03:41.097Z,90.40
2018-12-04T00:06:08.834Z,90.40
2018-12-04T00:08:36.282Z,90.40
2018-12-04T00:11:03.769Z,90.50
2018-12-04T00:13:31.414Z,90.60
2018-12-04T00:15:58.860Z,90.40
2018-12-04T00:18:26.341Z,90.60
2018-12-04T00:20:53.886Z,91.70
2018-12-04T00:23:21.311Z,92.30
2018-12-04T00:25:48.794Z,92.90
2018-12-04T00:28:16.351Z,93.40
2018-12-04T00:30:43.912Z,94.00
2018-12-04T00:33:11.392Z,94.50
2018-12-04T00:35:38.901Z,95.00
2018-12-04T00:38:06.344Z,95.20
2018-12-04T00:40:33.936Z,95.90
2018-12-04T00:43:01.449Z,96.50
2018-12-04T00:45:28.953Z,97.10
2018-12-04T00:47:56.378Z,97.60
2018-12-04T00:50:23.870Z,97.70
2018-12-04T00:52:51.360Z,97.80
2018-12-04T00:55:18.857Z,97.90
2018-12-04T00:57:46.344Z,98.70
2018-12-04T01:00:13.914Z,98.80
2018-12-04T01:02:41.440Z,99.10
2018-12-04T01:05:09.012Z,99.30
2018-12-04T01:07:36.612Z,99.50
2018-12-04T01:10:06.075Z,99.50
2018-12-04T01:12:33.532Z,99.50
2018-12-04T01:15:00.982Z,99.10
2018-12-04T01:17:28.544Z,98.80
2018-12-04T01:19:56.005Z,98.60
2018-12-04T01:22:23.470Z,98.60
2018-12-04T01:24:51.220Z,98.40
2018-12-04T01:27:19.009Z,98.50
2018-12-04T01:29:46.548Z,98.10
2018-12-04T01:32:14.018Z,97.60
2018-12-04T01:34:41.453Z,98.00
2018-12-04T01:37:08.957Z,97.80
2018-12-04T01:39:36.580Z,97.50
2018-12-04T01:42:04.145Z,97.60
2018-12-04T01:44:31.624Z,97.60
2018-12-04T01:46:59.074Z,97.10
2018-12-04T01:49:26.539Z,96.90
2018-12-04T01:51:53.961Z,97.20
2018-12-04T01:54:21.402Z,96.90
2018-12-04T01:56:48.856Z,96.90
2018-12-04T01:59:16.286Z,96.50
2018-12-04T02:01:43.896Z,96.50
2018-12-04T02:04:11.356Z,96.20
2018-12-04T02:06:38.813Z,95.50
2018-12-04T02:09:06.500Z,95.20
2018-12-04T02:11:34.949Z,95.10
2018-12-04T02:14:02.443Z,95.20
2018-12-04T02:16:29.879Z,95.60
2018-12-04T02:18:57.352Z,95.90
2018-12-04T02:21:24.817Z,96.30
2018-12-04T02:23:52.342Z,96.20
2018-12-04T02:26:19.797Z,96.10
2018-12-04T02:28:47.264Z,96.30
2018-12-04T02:31:14.691Z,96.00
2018-12-04T02:33:42.156Z,96.00
2018-12-04T02:36:09.626Z,96.10
2018-12-04T02:38:37.088Z,96.00
2018-12-04T02:41:04.657Z,96.00
2018-12-04T02:43:32.198Z,96.10
2018-12-04T02:45:59.638Z,96.20
2018-12-04T02:48:27.419Z,96.20
2018-12-04T02:50:55.108Z,96.30
2018-12-04T02:53:22.747Z,96.20
2018-12-04T02:55:50.297Z,96.00
2018-12-04T02:58:17.758Z,96.20
2018-12-04T03:00:45.323Z,96.30
2018-12-04T03:03:12.878Z,96.20
2018-12-04T03:05:40.337Z,96.60
2018-12-04T03:08:07.797Z,96.50
2018-12-04T03:10:35.558Z,96.70
2018-12-04T03:13:09.262Z,96.90
2018-12-04T03:15:37.002Z,97.00
2018-12-04T03:18:04.489Z,96.90
2018-12-04T03:20:32.131Z,97.30
2018-12-04T03:22:59.731Z,97.50
2018-12-04T03:25:27.139Z,97.30
2018-12-04T03:27:54.619Z,97.40
2018-12-04T03:30:22.093Z,97.10
2018-12-04T03:32:49.659Z,97.30
2018-12-04T03:35:17.167Z,97.40
2018-12-04T03:37:44.854Z,97.20
2018-12-04T03:40:12.440Z,97.20
2018-12-04T03:42:39.971Z,97.00
2018-12-04T03:45:07.537Z,97.20
2018-12-04T03:47:35.106Z,97.10
2018-12-04T03:50:02.850Z,97.00
2018-12-04T03:52:30.390Z,97.00
2018-12-04T03:54:57.818Z,97.00
2018-12-04T03:57:25.277Z,97.00
2018-12-04T03:59:52.885Z,97.30
2018-12-04T04:02:20.337Z,97.50
2018-12-04T04:04:47.901Z,97.40
2018-12-04T04:07:15.411Z,97.20
2018-12-04T04:09:42.919Z,97.10
2018-12-04T04:12:10.481Z,97.20
2018-12-04T04:14:38.047Z,97.30
2018-12-04T04:17:05.503Z,97.40
2018-12-04T04:19:32.937Z,97.50
2018-12-04T04:22:00.444Z,97.60
2018-12-04T04:24:27.878Z,97.60
2018-12-04T04:26:55.426Z,97.60
2018-12-04T04:29:22.981Z,97.50
2018-12-04T04:31:50.439Z,97.70
2018-12-04T04:34:18.001Z,98.20
2018-12-04T04:36:45.479Z,97.90
2018-12-04T04:39:12.909Z,98.10
2018-12-04T04:41:40.476Z,98.10
2018-12-04T04:44:08.018Z,98.30
2018-12-04T04:46:35.490Z,98.20
2018-12-04T04:49:02.950Z,98.30
2018-12-04T04:51:30.415Z,98.20
2018-12-04T04:53:57.974Z,98.30
2018-12-04T04:56:25.475Z,98.40
2018-12-04T04:58:52.909Z,98.40
2018-12-04T05:01:20.440Z,98.20
2018-12-04T05:03:48.047Z,98.10
2018-12-04T05:06:15.493Z,98.20
2018-12-04T05:08:43.022Z,98.20
2018-12-04T05:11:10.495Z,97.70
2018-12-04T05:13:37.922Z,98.00
2018-12-04T05:16:05.413Z,98.20
2018-12-04T05:18:32.946Z,97.80
2018-12-04T05:21:00.453Z,98.00
2018-12-04T05:23:27.930Z,98.20
2018-12-04T05:25:55.349Z,98.30
2018-12-04T05:28:22.781Z,98.30
2018-12-04T05:30:50.250Z,97.80
2018-12-04T05:33:17.777Z,97.50
2018-12-04T05:35:45.294Z,97.30
2018-12-04T05:38:12.754Z,97.40
2018-12-04T05:40:40.266Z,97.50
2018-12-04T05:43:07.776Z,97.60
2018-12-04T05:45:35.385Z,97.60
2018-12-04T05:48:02.814Z,97.80
2018-12-04T05:50:30.248Z,97.70
2018-12-04T05:53:09.720Z,97.60
2018-12-04T05:55:37.185Z,97.80
2018-12-04T05:58:04.738Z,97.70
2018-12-04T06:00:32.206Z,97.80
2018-12-04T06:02:59.780Z,97.70
2018-12-04T06:05:27.313Z,97.50
2018-12-04T06:07:54.778Z,97.30
2018-12-04T06:10:22.209Z,97.30
2018-12-04T06:12:49.685Z,97.60
2018-12-04T06:15:17.146Z,97.30
2018-12-04T06:17:44.597Z,97.00
2018-12-04T06:20:12.075Z,97.00
2018-12-04T06:22:39.511Z,96.70
2018-12-04T06:25:07.083Z,96.60
2018-12-04T06:27:34.629Z,96.70
2018-12-04T06:30:02.195Z,96.70
2018-12-04T06:32:29.763Z,96.70
2018-12-04T06:34:57.173Z,96.70
2018-12-04T06:37:24.656Z,96.80
2018-12-04T06:39:52.198Z,96.80
2018-12-04T06:42:19.625Z,96.70
2018-12-04T06:44:47.130Z,96.90
2018-12-04T06:47:14.722Z,97.00
2018-12-04T06:49:42.141Z,96.80
2018-12-04T06:52:09.564Z,96.80
2018-12-04T06:54:37.070Z,96.90
2018-12-04T06:57:04.717Z,96.60
2018-12-04T06:59:32.177Z,96.50
2018-12-04T07:02:00.146Z,96.70
2018-12-04T07:04:27.574Z,96.30
2018-12-04T07:06:55.005Z,96.60
2018-12-04T07:09:22.643Z,96.30
2018-12-04T07:11:50.078Z,96.70
2018-12-04T07:14:17.535Z,96.50
2018-12-04T07:16:45.070Z,96.70
2018-12-04T07:19:12.494Z,96.70
2018-12-04T07:21:40.109Z,96.90
2018-12-04T07:24:07.567Z,96.80
2018-12-04T07:26:35.021Z,96.80
2018-12-04T07:29:02.578Z,97.20
2018-12-04T07:31:30.141Z,97.10
2018-12-04T07:33:57.593Z,96.90
2018-12-04T07:36:25.053Z,97.10
2018-12-04T07:38:52.510Z,97.10
2018-12-04T07:41:20.069Z,97.00
2018-12-04T07:43:47.498Z,97.30
2018-12-04T07:46:15.010Z,97.20
2018-12-04T07:48:42.726Z,97.10
2018-12-04T07:51:10.310Z,97.10
2018-12-04T07:53:38.799Z,97.30
2018-12-04T07:56:06.307Z,97.10
2018-12-04T07:58:33.803Z,96.70
2018-12-04T08:01:01.265Z,96.70
2018-12-04T08:03:28.817Z,96.80
2018-12-04T08:05:56.273Z,96.70
2018-12-04T08:08:23.702Z,96.80
2018-12-04T08:10:51.199Z,96.80
2018-12-04T08:13:18.629Z,96.80
2018-12-04T08:15:46.102Z,96.50
2018-12-04T08:18:13.666Z,96.50
2018-12-04T08:20:41.102Z,96.90
2018-12-04T08:23:08.573Z,96.40
2018-12-04T08:25:36.138Z,96.60
2018-12-04T08:28:03.735Z,96.60
2018-12-04T08:30:31.566Z,96.50
2018-12-04T08:32:59.118Z,96.50
2018-12-04T08:35:26.677Z,96.50
2018-12-04T08:37:54.143Z,96.40
2018-12-04T08:40:21.606Z,96.30
2018-12-04T08:42:49.117Z,96.00
2018-12-04T08:45:16.602Z,95.80
2018-12-04T08:47:44.039Z,95.80
2018-12-04T08:50:11.518Z,95.70
2018-12-04T08:52:39.095Z,95.80
2018-12-04T08:55:06.693Z,95.70
2018-12-04T08:57:34.182Z,95.10
2018-12-04T09:00:01.683Z,95.20
2018-12-04T09:02:29.110Z,95.30
2018-12-04T09:04:56.608Z,95.30
2018-12-04T09:07:24.105Z,95.40
2018-12-04T09:09:51.583Z,95.40
2018-12-04T09:12:19.017Z,95.70
2018-12-04T09:14:46.510Z,95.10
2018-12-04T09:17:13.973Z,94.80
2018-12-04T09:19:41.612Z,94.90
2018-12-04T09:22:09.182Z,94.50
2018-12-04T09:24:36.765Z,94.30
2018-12-04T09:27:05.715Z,94.40
2018-12-04T09:29:33.502Z,94.80
2018-12-04T09:32:01.067Z,94.70
2018-12-04T09:34:29.976Z,94.40
2018-12-04T09:36:57.603Z,94.10
2018-12-04T09:39:25.130Z,94.20
2018-12-04T09:41:52.605Z,93.90
2018-12-04T09:44:20.185Z,93.80
2018-12-04T09:46:47.645Z,93.70
2018-12-04T09:49:15.122Z,93.80
2018-12-04T09:51:42.561Z,93.80
2018-12-04T09:54:10.014Z,93.10
2018-12-04T09:56:37.511Z,92.80
2018-12-04T09:59:05.001Z,92.70
2018-12-04T10:01:32.482Z,92.80
2018-12-04T10:03:59.981Z,92.50
2018-12-04T10:06:27.398Z,92.40
2018-12-04T10:08:54.826Z,91.80
2018-12-04T10:11:22.506Z,92.10
2018-12-04T10:13:49.946Z,91.70
2018-12-04T10:16:17.393Z,91.20
2018-12-04T10:18:47.697Z,91.40
2018-12-04T10:21:14.410Z,91.80
2018-12-04T10:23:42.038Z,92.10
2018-12-04T10:26:09.547Z,91.90
2018-12-04T10:28:37.058Z,92.10
2018-12-04T10:31:09.990Z,91.60
2018-12-04T10:33:37.444Z,92.20
2018-12-04T10:36:04.942Z,92.00
2018-12-04T10:38:32.424Z,91.90
2018-12-04T10:40:59.866Z,91.60
2018-12-04T10:43:27.324Z,92.00
2018-12-04T10:45:54.794Z,91.50
2018-12-04T10:48:22.238Z,91.50
2018-12-04T10:50:49.803Z,92.10
2018-12-04T10:53:17.286Z,91.50
2018-12-04T10:55:44.818Z,91.10
2018-12-04T10:58:12.265Z,91.50
2018-12-04T11:00:45.393Z,90.70
2018-12-04T11:03:13.068Z,90.60
2018-12-04T11:05:41.016Z,90.60
2018-12-04T11:08:08.628Z,90.60
2018-12-04T11:10:36.041Z,89.60
2018-12-04T11:13:03.559Z,89.60
2018-12-04T11:15:31.041Z,89.60
2018-12-04T11:17:58.478Z,88.40
2018-12-04T11:20:25.950Z,88.00
2018-12-04T11:22:53.413Z,88.70
2018-12-04T11:25:20.914Z,89.80
2018-12-04T11:27:48.390Z,90.00
2018-12-04T11:30:15.870Z,90.00
2018-12-04T11:32:43.667Z,88.80
2018-12-04T11:35:11.194Z,88.10
2018-12-04T11:37:38.747Z,90.00
2018-12-04T11:40:07.248Z,90.00
2018-12-04T11:42:34.989Z,86.00
2018-12-04T11:45:02.447Z,87.00
2018-12-04T11:47:29.902Z,87.50
2018-12-04T11:49:57.367Z,86.20
2018-12-04T11:52:24.850Z,86.70
2018-12-04T11:54:52.338Z,87.50
2018-12-04T11:57:20.862Z,87.10
2018-12-04T11:59:48.370Z,87.50
2018-12-04T12:02:16.122Z,87.80
2018-12-04T12:04:43.793Z,88.60
2018-12-04T12:07:11.268Z,90.10
2018-12-04T12:09:38.754Z,90.70
2018-12-04T12:12:06.219Z,91.10
2018-12-04T12:14:33.774Z,92.00
2018-12-04T12:17:01.339Z,92.00
2018-12-04T12:19:28.886Z,91.40
2018-12-04T12:21:56.358Z,91.00
2018-12-04T12:24:23.805Z,90.50
2018-12-04T12:26:51.368Z,90.40
2018-12-04T12:29:18.834Z,91.10
2018-12-04T12:31:46.382Z,91.00
2018-12-04T12:34:13.802Z,91.30
2018-12-04T12:36:41.394Z,91.40
2018-12-04T12:39:08.954Z,90.90
2018-12-04T12:41:36.418Z,90.70
2018-12-04T12:44:03.977Z,90.40
2018-12-04T12:46:31.530Z,90.70
2018-12-04T12:48:58.977Z,90.10
2018-12-04T12:51:26.445Z,90.00
2018-12-04T12:53:54.016Z,87.80
2018-12-04T12:56:21.647Z,86.10
2018-12-04T12:58:49.222Z,84.80
2018-12-04T13:01:16.787Z,83.70
2018-12-04T13:03:44.221Z,81.20
2018-12-04T13:06:12.311Z,79.90
2018-12-04T13:08:39.778Z,79.20
2018-12-04T13:11:07.365Z,78.30
2018-12-04T13:13:36.909Z,77.90
2018-12-04T13:16:04.280Z,76.90
2018-12-04T13:18:31.920Z,74.10
2018-12-04T13:20:59.484Z,75.10
2018-12-04T13:23:26.969Z,77.50
2018-12-04T13:25:54.489Z,79.40
2018-12-04T13:28:21.982Z,82.30
2018-12-04T13:30:49.543Z,83.10
2018-12-04T13:33:17.023Z,81.40
2018-12-04T13:35:44.666Z,82.00
2018-12-04T13:38:12.151Z,81.20
2018-12-04T13:40:39.655Z,82.80
2018-12-04T13:43:07.135Z,84.50
2018-12-04T13:45:34.622Z,85.10
2018-12-04T13:48:02.254Z,86.40
2018-12-04T13:50:29.811Z,87.40
2018-12-04T13:52:57.357Z,85.50
2018-12-04T13:55:24.940Z,84.80
2018-12-04T13:57:55.974Z,85.70
2018-12-04T14:00:23.430Z,86.40
2018-12-04T14:02:50.987Z,86.20
2018-12-04T14:05:18.504Z,87.10
2018-12-04T14:07:46.009Z,87.80
2018-12-04T14:10:13.869Z,88.10
2018-12-04T14:12:41.407Z,88.50
2018-12-04T14:15:09.116Z,88.30
2018-12-04T14:17:37.012Z,88.50
2018-12-04T14:20:06.464Z,88.20
2018-12-04T14:22:34.018Z,88.00
2018-12-04T14:25:01.701Z,88.00
2018-12-04T14:27:29.242Z,88.40
2018-12-04T14:29:56.800Z,89.40
2018-12-04T14:32:24.362Z,89.20
2018-12-04T14:34:51.873Z,89.60
2018-12-04T14:37:19.410Z,90.00
2018-12-04T14:39:47.110Z,90.20
2018-12-04T14:42:14.700Z,90.10
2018-12-04T14:44:42.259Z,90.10
2018-12-04T14:47:10.070Z,90.20
2018-12-04T14:49:37.593Z,90.20
2018-12-04T14:52:05.144Z,90.60
2018-12-04T14:54:32.739Z,91.10
2018-12-04T14:57:00.291Z,91.30
2018-12-04T14:59:27.779Z,91.40
2018-12-04T15:01:55.340Z,91.80
2018-12-04T15:04:22.962Z,92.10
2018-12-04T15:06:50.515Z,92.40
2018-12-04T15:09:18.033Z,92.50
2018-12-04T15:11:45.467Z,92.90
2018-12-04T15:14:14.562Z,93.10
2018-12-04T15:16:42.002Z,93.10
2018-12-04T15:19:09.533Z,93.20
2018-12-04T15:21:37.080Z,94.00
2018-12-04T15:24:04.670Z,93.80
2018-12-04T15:26:32.201Z,94.10
2018-12-04T15:28:59.671Z,94.50
2018-12-04T15:31:27.122Z,94.50
2018-12-04T15:33:54.608Z,94.90
2018-12-04T15:36:22.202Z,94.90
2018-12-04T15:38:49.695Z,95.10
2018-12-04T15:41:17.156Z,95.30
2018-12-04T15:43:44.711Z,95.40
2018-12-04T15:46:12.162Z,95.70
2018-12-04T15:48:39.783Z,95.80
2018-12-04T15:51:07.710Z,96.10
2018-12-04T15:53:35.242Z,96.30
2018-12-04T15:56:02.813Z,96.30
2018-12-04T15:58:30.346Z,96.40
2018-12-04T16:00:57.802Z,96.40
2018-12-04T16:03:25.326Z,96.60
2018-12-04T16:05:52.865Z,96.70
2018-12-04T16:08:20.299Z,96.70
2018-12-04T16:10:47.770Z,96.60
2018-12-04T16:13:16.677Z,96.80
2018-12-04T16:15:44.256Z,96.80
2018-12-04T16:18:11.930Z,97.10
2018-12-04T16:20:39.363Z,97.20
2018-12-04T16:23:06.820Z,97.20
2018-12-04T16:25:34.280Z,97.40
2018-12-04T16:28:01.725Z,97.40
2018-12-04T16:30:29.154Z,97.30
2018-12-04T16:32:56.684Z,97.30
2018-12-04T16:35:24.221Z,97.60
2018-12-04T16:37:51.800Z,97.80
2018-12-04T16:40:19.341Z,97.80
2018-12-04T16:42:46.943Z,97.80
2018-12-04T16:45:14.460Z,97.80
2018-12-04T16:47:42.803Z,97.70
2018-12-04T16:50:10.329Z,97.60
2018-12-04T16:52:37.780Z,97.60
2018-12-04T16:55:05.716Z,97.60
2018-12-04T16:57:33.225Z,97.70
2018-12-04T17:00:00.738Z,97.70
2018-12-04T17:02:28.460Z,97.50
2018-12-04T17:04:55.907Z,97.60
2018-12-04T17:07:23.547Z,97.60
2018-12-04T17:09:51.114Z,97.50
2018-12-04T17:12:18.680Z,97.50
2018-12-04T17:14:46.190Z,97.30
2018-12-04T17:17:15.009Z,97.30
2018-12-04T17:19:42.494Z,97.60
2018-12-04T17:22:09.930Z,97.50
2018-12-04T17:24:37.398Z,97.50
2018-12-04T17:27:04.869Z,97.60
2018-12-04T17:29:32.400Z,97.80
2018-12-04T17:31:59.906Z,97.70
2018-12-04T17:34:27.348Z,97.60
2018-12-04T17:36:54.783Z,97.80
2018-12-04T17:39:22.320Z,97.80
2018-12-04T17:41:49.752Z,97.80
2018-12-04T17:44:17.251Z,97.80
2018-12-04T17:46:44.700Z,98.00
2018-12-04T17:49:12.198Z,97.90
2018-12-04T17:51:39.612Z,97.80
2018-12-04T17:54:07.568Z,97.90
2018-12-04T17:56:35.033Z,97.90
2018-12-04T17:59:02.502Z,98.00
2018-12-04T18:01:29.958Z,98.00
2018-12-04T18:03:57.453Z,97.90
2018-12-04T18:06:25.014Z,97.80
2018-12-04T18:08:52.447Z,97.90
2018-12-04T18:11:20.005Z,98.10
2018-12-04T18:13:47.562Z,98.20
2018-12-04T18:16:15.025Z,98.10
2018-12-04T18:18:42.489Z,98.10
2018-12-04T18:21:09.926Z,98.10
2018-12-04T18:23:37.407Z,98.20
2018-12-04T18:26:04.905Z,98.20
2018-12-04T18:28:32.362Z,98.00
2018-12-04T18:30:59.814Z,98.00
2018-12-04T18:33:27.254Z,98.10
2018-12-04T18:35:54.970Z,98.20
2018-12-04T18:38:22.405Z,98.60
2018-12-04T18:40:49.879Z,98.30
2018-12-04T18:43:17.378Z,98.20
2018-12-04T18:45:44.826Z,98.00
2018-12-04T18:48:12.304Z,98.20
2018-12-04T18:50:39.735Z,98.20
2018-12-04T18:53:07.162Z,98.00
2018-12-04T18:55:34.663Z,98.00
2018-12-04T18:58:02.219Z,98.00
2018-12-04T19:00:29.679Z,98.10
2018-12-04T19:02:57.146Z,98.30
2018-12-04T19:05:24.762Z,98.40
2018-12-04T19:07:52.265Z,98.30
2018-12-04T19:10:19.789Z,98.10
2018-12-04T19:12:47.252Z,98.20
2018-12-04T19:15:14.737Z,98.20
2018-12-04T19:17:42.266Z,98.10
2018-12-04T19:20:09.741Z,98.20
2018-12-04T19:22:37.219Z,98.30
2018-12-04T19:25:05.111Z,98.30
2018-12-04T19:27:32.579Z,98.30
2018-12-04T19:30:00.330Z,98.40
2018-12-04T19:32:27.850Z,98.50
2018-12-04T19:34:55.374Z,98.40
2018-12-04T19:37:22.923Z,98.50
2018-12-04T19:39:50.400Z,98.60
2018-12-04T19:42:17.829Z,98.50
2018-12-04T19:44:45.311Z,98.60
2018-12-04T19:47:12.845Z,99.00
2018-12-04T19:49:40.622Z,98.80
2018-12-04T19:52:08.174Z,98.70
2018-12-04T19:54:35.738Z,98.80
2018-12-04T19:57:03.517Z,98.70
2018-12-04T19:59:30.969Z,98.70
2018-12-04T20:01:58.617Z,98.60
2018-12-04T20:04:26.050Z,98.70
2018-12-04T20:06:53.530Z,98.70
2018-12-04T20:09:21.031Z,98.70
2018-12-04T20:11:48.649Z,98.80
2018-12-04T20:14:16.085Z,98.60
2018-12-04T20:16:43.569Z,98.60
2018-12-04T20:19:11.222Z,98.60
2018-12-04T20:21:38.790Z,98.60
2018-12-04T20:24:06.349Z,98.60
2018-12-04T20:26:33.786Z,98.70
2018-12-04T20:29:01.294Z,98.60
2018-12-04T20:31:29.200Z,98.60
2018-12-04T20:33:56.874Z,98.70
2018-12-04T20:36:24.499Z,98.70
2018-12-04T20:38:52.262Z,98.80
2018-12-04T20:41:19.817Z,98.70
2018-12-04T20:43:47.449Z,98.60
2018-12-04T20:46:15.088Z,98.90
2018-12-04T20:48:42.522Z,99.00
2018-12-04T20:51:09.966Z,99.00
2018-12-04T20:53:37.577Z,99.00
2018-12-04T20:56:05.169Z,99.00
2018-12-04T20:58:32.606Z,99.00
2018-12-04T21:01:00.525Z,98.80
2018-12-04T21:03:28.218Z,98.60
2018-12-04T21:05:55.948Z,98.60
2018-12-04T21:08:23.651Z,98.50
2018-12-04T21:10:51.419Z,98.50
2018-12-04T21:13:19.062Z,98.60
2018-12-04T21:15:46.818Z,98.70
2018-12-04T21:18:14.459Z,98.80
2018-12-04T21:20:42.123Z,98.90
2018-12-04T21:23:09.860Z,99.00
2018-12-04T21:25:37.562Z,98.90
2018-12-04T21:28:10.942Z,98.90
2018-12-04T21:30:44.559Z,99.00
2018-12-04T21:33:18.518Z,99.00
2018-12-04T21:35:51.734Z,99.00
2018-12-04T21:38:24.754Z,99.20
2018-12-04T21:40:57.864Z,99.00
2018-12-04T21:43:31.221Z,99.10
2018-12-04T21:46:04.230Z,99.00
2018-12-04T21:48:31.809Z,99.00
2018-12-04T21:50:59.266Z,99.00
2018-12-04T21:53:26.699Z,99.00
2018-12-04T21:55:54.186Z,99.00
2018-12-04T21:58:21.956Z,99.20
2018-12-04T22:00:49.459Z,99.50
2018-12-04T22:03:16.959Z,99.20
2018-12-04T22:05:44.393Z,99.20
2018-12-04T22:08:11.879Z,99.30
2018-12-04T22:10:39.530Z,99.40
2018-12-04T22:13:07.005Z,99.50
2018-12-04T22:15:34.529Z,99.50
2018-12-04T22:18:02.010Z,99.40
2018-12-04T22:20:29.518Z,99.70
2018-12-04T22:22:56.954Z,99.80
2018-12-04T22:25:24.433Z,99.60
2018-12-04T22:27:51.861Z,99.50
2018-12-04T22:30:19.299Z,99.60
2018-12-04T22:32:46.971Z,99.70
2018-12-04T22:35:14.489Z,99.70
2018-12-04T22:37:42.102Z,99.70
2018-12-04T22:40:09.810Z,99.70
2018-12-04T22:42:37.246Z,99.80
2018-12-04T22:45:24.871Z,99.60
2018-12-04T22:47:52.573Z,99.60
2018-12-04T22:50:20.017Z,99.50
2018-12-04T22:52:47.552Z,99.50
2018-12-04T22:55:15.091Z,99.20
2018-12-04T22:57:42.564Z,99.20
2018-12-04T23:00:16.482Z,99.10
2018-12-04T23:02:43.950Z,99.10
2018-12-04T23:05:11.427Z,99.00
2018-12-04T23:07:38.891Z,99.20
2018-12-04T23:10:07.926Z,99.20
2018-12-04T23:12:35.424Z,99.40
2018-12-04T23:15:02.970Z,99.20
2018-12-04T23:17:30.407Z,99.10
2018-12-04T23:19:57.891Z,99.10
2018-12-04T23:22:25.454Z,99.20
2018-12-04T23:24:52.889Z,99.30
2018-12-04T23:27:20.363Z,99.40
2018-12-04T23:29:47.834Z,99.40
2018-12-04T23:32:15.317Z,99.40
2018-12-04T23:34:43.033Z,99.30
2018-12-04T23:37:10.502Z,99.40
2018-12-04T23:39:37.954Z,99.50
2018-12-04T23:42:05.617Z,99.60
2018-12-04T23:44:33.076Z,99.60
2018-12-04T23:47:00.539Z,99.60
2018-12-04T23:49:28.002Z,99.70
2018-12-04T23:51:55.509Z,99.90
2018-12-04T23:54:22.994Z,99.90
2018-12-04T23:56:50.446Z,99.90
2018-12-04T23:59:17.930Z,99.80
